Cobbs Creek, Virginia
Current Conditions -  °F | °C
As of 1:15 PM on Thursday 30 Oct 2014 (Local Time) from KW75 Reporting Station
Clear Clear  
Wind Chill: 61°   Ceiling: Unl
Heat Index: 61°   Visibility: 10mi
Dew Point: 42°   Wind: 8mph
Humidity: 50%   Direction: 340°NNW
Pressure: 30.02"   Gusts: NA
Location:  37.51°N, 76.4°W
Report Text: KW75 301715Z AUTO 34007KT 300V360 10SM CLR 16/05 A3002 RMK AO1 T01590054
Loading
Personal Weather Stations






























Interactive Weather Map New forecast layout! Learn more

10-Day Weather Forecast

Advertisements
Track Severe Weather on mobile